sensor_id;sensor_type;location;lat;lon;timestamp;temperature;humidity
15574;DHT22;7888;46.748;8.102;2022-09-09T00:00:48;21.00;49.90
15574;DHT22;7888;46.748;8.102;2022-09-09T00:03:34;20.90;49.80
15574;DHT22;7888;46.748;8.102;2022-09-09T00:06:21;20.90;49.80
15574;DHT22;7888;46.748;8.102;2022-09-09T00:09:17;20.90;50.00
15574;DHT22;7888;46.748;8.102;2022-09-09T00:11:52;20.90;50.00
15574;DHT22;7888;46.748;8.102;2022-09-09T00:17:22;20.80;49.80
15574;DHT22;7888;46.748;8.102;2022-09-09T00:19:59;20.70;49.80
15574;DHT22;7888;46.748;8.102;2022-09-09T00:22:41;20.70;49.90
15574;DHT22;7888;46.748;8.102;2022-09-09T00:28:16;20.60;49.90
15574;DHT22;7888;46.748;8.102;2022-09-09T00:30:45;20.60;50.00
15574;DHT22;7888;46.748;8.102;2022-09-09T00:33:17;20.60;49.90
15574;DHT22;7888;46.748;8.102;2022-09-09T00:35:52;20.50;49.80
15574;DHT22;7888;46.748;8.102;2022-09-09T00:38:25;20.50;49.80
15574;DHT22;7888;46.748;8.102;2022-09-09T00:43:41;20.40;49.80
15574;DHT22;7888;46.748;8.102;2022-09-09T00:46:31;20.40;49.80
15574;DHT22;7888;46.748;8.102;2022-09-09T00:58:15;20.30;49.80
15574;DHT22;7888;46.748;8.102;2022-09-09T01:00:49;20.20;49.90
15574;DHT22;7888;46.748;8.102;2022-09-09T01:06:21;20.10;50.10
15574;DHT22;7888;46.748;8.102;2022-09-09T01:09:12;20.10;50.10
15574;DHT22;7888;46.748;8.102;2022-09-09T01:15:22;20.00;50.20
15574;DHT22;7888;46.748;8.102;2022-09-09T01:18:02;20.00;50.00
15574;DHT22;7888;46.748;8.102;2022-09-09T01:27:01;19.90;50.10
15574;DHT22;7888;46.748;8.102;2022-09-09T01:29:29;19.90;49.90
15574;DHT22;7888;46.748;8.102;2022-09-09T01:35:12;19.80;50.40
15574;DHT22;7888;46.748;8.102;2022-09-09T01:37:47;19.80;50.30
15574;DHT22;7888;46.748;8.102;2022-09-09T01:40:13;19.80;50.30
15574;DHT22;7888;46.748;8.102;2022-09-09T01:42:39;19.70;50.30
15574;DHT22;7888;46.748;8.102;2022-09-09T01:45:05;19.70;50.40
15574;DHT22;7888;46.748;8.102;2022-09-09T01:47:32;19.70;50.30
15574;DHT22;7888;46.748;8.102;2022-09-09T01:49:58;19.70;50.30
15574;DHT22;7888;46.748;8.102;2022-09-09T01:52:25;19.60;50.60
15574;DHT22;7888;46.748;8.102;2022-09-09T01:54:51;19.60;50.50
15574;DHT22;7888;46.748;8.102;2022-09-09T01:57:24;19.60;50.30
15574;DHT22;7888;46.748;8.102;2022-09-09T02:00:08;19.60;50.90
15574;DHT22;7888;46.748;8.102;2022-09-09T02:03:05;19.50;50.80
15574;DHT22;7888;46.748;8.102;2022-09-09T02:05:40;19.50;51.00
15574;DHT22;7888;46.748;8.102;2022-09-09T02:08:42;19.50;50.80
15574;DHT22;7888;46.748;8.102;2022-09-09T02:11:17;19.40;51.20
15574;DHT22;7888;46.748;8.102;2022-09-09T02:13:47;19.40;51.00
15574;DHT22;7888;46.748;8.102;2022-09-09T02:21:23;19.30;51.30
15574;DHT22;7888;46.748;8.102;2022-09-09T02:23:54;19.30;51.20
15574;DHT22;7888;46.748;8.102;2022-09-09T02:26:23;19.30;51.20
15574;DHT22;7888;46.748;8.102;2022-09-09T02:28:54;19.20;51.20
15574;DHT22;7888;46.748;8.102;2022-09-09T02:31:24;19.20;51.00
15574;DHT22;7888;46.748;8.102;2022-09-09T02:33:56;19.20;51.10
15574;DHT22;7888;46.748;8.102;2022-09-09T02:36:29;19.20;51.30
15574;DHT22;7888;46.748;8.102;2022-09-09T02:38:59;19.20;51.40
15574;DHT22;7888;46.748;8.102;2022-09-09T02:41:37;19.20;51.50
15574;DHT22;7888;46.748;8.102;2022-09-09T02:44:09;19.10;51.90
15574;DHT22;7888;46.748;8.102;2022-09-09T02:49:59;19.10;52.40
15574;DHT22;7888;46.748;8.102;2022-09-09T02:55:39;19.00;52.20
15574;DHT22;7888;46.748;8.102;2022-09-09T02:58:14;19.00;52.50
15574;DHT22;7888;46.748;8.102;2022-09-09T03:00:44;19.00;52.50
15574;DHT22;7888;46.748;8.102;2022-09-09T03:03:12;19.00;52.30
15574;DHT22;7888;46.748;8.102;2022-09-09T03:05:38;19.00;52.50
15574;DHT22;7888;46.748;8.102;2022-09-09T03:08:05;19.00;52.60
15574;DHT22;7888;46.748;8.102;2022-09-09T03:10:32;19.00;52.50
15574;DHT22;7888;46.748;8.102;2022-09-09T03:12:58;19.00;52.80
15574;DHT22;7888;46.748;8.102;2022-09-09T03:15:24;19.00;52.80
15574;DHT22;7888;46.748;8.102;2022-09-09T03:17:54;19.00;52.80
15574;DHT22;7888;46.748;8.102;2022-09-09T03:20:20;19.00;53.10
15574;DHT22;7888;46.748;8.102;2022-09-09T03:22:46;19.00;53.20
15574;DHT22;7888;46.748;8.102;2022-09-09T03:25:12;19.00;53.10
15574;DHT22;7888;46.748;8.102;2022-09-09T03:27:38;19.10;53.40
15574;DHT22;7888;46.748;8.102;2022-09-09T03:30:04;19.00;53.40
15574;DHT22;7888;46.748;8.102;2022-09-09T03:32:30;19.00;53.40
15574;DHT22;7888;46.748;8.102;2022-09-09T03:34:57;19.00;53.40
15574;DHT22;7888;46.748;8.102;2022-09-09T03:37:22;19.10;53.60
15574;DHT22;7888;46.748;8.102;2022-09-09T03:39:48;19.10;53.80
15574;DHT22;7888;46.748;8.102;2022-09-09T03:42:15;19.10;53.60
15574;DHT22;7888;46.748;8.102;2022-09-09T03:44:44;19.10;53.60
15574;DHT22;7888;46.748;8.102;2022-09-09T03:47:19;19.10;53.50
15574;DHT22;7888;46.748;8.102;2022-09-09T03:49:47;19.10;53.80
15574;DHT22;7888;46.748;8.102;2022-09-09T03:52:14;19.10;53.60
15574;DHT22;7888;46.748;8.102;2022-09-09T03:54:41;19.10;53.80
15574;DHT22;7888;46.748;8.102;2022-09-09T03:57:09;19.10;53.90
15574;DHT22;7888;46.748;8.102;2022-09-09T03:59:36;19.10;54.20
15574;DHT22;7888;46.748;8.102;2022-09-09T04:02:02;19.10;54.20
15574;DHT22;7888;46.748;8.102;2022-09-09T04:04:28;19.10;54.20
15574;DHT22;7888;46.748;8.102;2022-09-09T04:06:54;19.10;54.00
15574;DHT22;7888;46.748;8.102;2022-09-09T04:09:20;19.10;53.90
15574;DHT22;7888;46.748;8.102;2022-09-09T04:11:46;19.10;53.90
15574;DHT22;7888;46.748;8.102;2022-09-09T04:14:13;19.10;53.70
15574;DHT22;7888;46.748;8.102;2022-09-09T04:16:39;19.10;53.70
15574;DHT22;7888;46.748;8.102;2022-09-09T04:19:08;19.00;53.70
15574;DHT22;7888;46.748;8.102;2022-09-09T04:21:34;19.10;53.90
15574;DHT22;7888;46.748;8.102;2022-09-09T04:23:59;19.00;53.90
15574;DHT22;7888;46.748;8.102;2022-09-09T04:26:25;19.10;54.00
15574;DHT22;7888;46.748;8.102;2022-09-09T04:28:51;19.00;53.60
15574;DHT22;7888;46.748;8.102;2022-09-09T04:31:20;19.00;53.50
15574;DHT22;7888;46.748;8.102;2022-09-09T04:33:49;19.00;53.80
15574;DHT22;7888;46.748;8.102;2022-09-09T04:36:15;19.00;53.80
15574;DHT22;7888;46.748;8.102;2022-09-09T04:38:42;18.90;53.90
15574;DHT22;7888;46.748;8.102;2022-09-09T04:41:09;18.90;54.20
15574;DHT22;7888;46.748;8.102;2022-09-09T04:43:37;18.90;54.30
15574;DHT22;7888;46.748;8.102;2022-09-09T04:46:03;18.90;54.10
15574;DHT22;7888;46.748;8.102;2022-09-09T04:48:29;18.90;54.50
15574;DHT22;7888;46.748;8.102;2022-09-09T04:51:02;18.90;54.50
15574;DHT22;7888;46.748;8.102;2022-09-09T04:53:30;18.90;54.90
15574;DHT22;7888;46.748;8.102;2022-09-09T04:56:04;18.90;54.40
15574;DHT22;7888;46.748;8.102;2022-09-09T04:58:32;18.90;54.60
15574;DHT22;7888;46.748;8.102;2022-09-09T05:03:46;18.90;55.10
15574;DHT22;7888;46.748;8.102;2022-09-09T05:06:15;18.90;54.60
15574;DHT22;7888;46.748;8.102;2022-09-09T05:08:43;18.90;54.70
15574;DHT22;7888;46.748;8.102;2022-09-09T05:11:22;18.90;54.50
15574;DHT22;7888;46.748;8.102;2022-09-09T05:13:51;18.90;54.80
15574;DHT22;7888;46.748;8.102;2022-09-09T05:16:18;18.90;54.20
15574;DHT22;7888;46.748;8.102;2022-09-09T05:18:45;18.90;54.50
15574;DHT22;7888;46.748;8.102;2022-09-09T05:21:13;18.90;54.70
15574;DHT22;7888;46.748;8.102;2022-09-09T05:23:40;18.90;54.80
15574;DHT22;7888;46.748;8.102;2022-09-09T05:26:09;18.90;54.70
15574;DHT22;7888;46.748;8.102;2022-09-09T05:28:39;18.90;54.80
15574;DHT22;7888;46.748;8.102;2022-09-09T05:31:07;18.90;54.60
15574;DHT22;7888;46.748;8.102;2022-09-09T05:33:38;18.90;54.60
15574;DHT22;7888;46.748;8.102;2022-09-09T05:36:19;18.90;54.80
15574;DHT22;7888;46.748;8.102;2022-09-09T05:38:46;18.80;55.00
15574;DHT22;7888;46.748;8.102;2022-09-09T05:41:13;18.80;54.70
15574;DHT22;7888;46.748;8.102;2022-09-09T05:43:43;18.90;54.80
15574;DHT22;7888;46.748;8.102;2022-09-09T05:46:12;18.90;54.80
15574;DHT22;7888;46.748;8.102;2022-09-09T05:48:42;18.90;55.00
15574;DHT22;7888;46.748;8.102;2022-09-09T05:51:12;18.90;55.00
15574;DHT22;7888;46.748;8.102;2022-09-09T05:53:43;18.90;55.20
15574;DHT22;7888;46.748;8.102;2022-09-09T05:56:12;18.90;55.00
15574;DHT22;7888;46.748;8.102;2022-09-09T05:58:40;18.90;55.10
15574;DHT22;7888;46.748;8.102;2022-09-09T06:01:14;19.00;54.90
15574;DHT22;7888;46.748;8.102;2022-09-09T06:04:00;19.00;54.90
15574;DHT22;7888;46.748;8.102;2022-09-09T06:06:31;19.00;54.70
15574;DHT22;7888;46.748;8.102;2022-09-09T06:09:03;19.00;55.00
15574;DHT22;7888;46.748;8.102;2022-09-09T06:11:36;19.00;55.00
15574;DHT22;7888;46.748;8.102;2022-09-09T06:14:05;19.00;54.80
15574;DHT22;7888;46.748;8.102;2022-09-09T06:16:32;19.00;54.80
15574;DHT22;7888;46.748;8.102;2022-09-09T06:18:59;19.00;54.70
15574;DHT22;7888;46.748;8.102;2022-09-09T06:21:30;19.00;55.00
15574;DHT22;7888;46.748;8.102;2022-09-09T06:23:59;19.00;55.20
15574;DHT22;7888;46.748;8.102;2022-09-09T12:50:33;26.50;43.40
15574;DHT22;7888;46.748;8.102;2022-09-09T12:56:04;26.40;43.50
15574;DHT22;7888;46.748;8.102;2022-09-09T12:58:36;26.40;43.90
15574;DHT22;7888;46.748;8.102;2022-09-09T13:01:04;26.40;43.60
15574;DHT22;7888;46.748;8.102;2022-09-09T13:03:33;26.40;43.90
15574;DHT22;7888;46.748;8.102;2022-09-09T13:06:13;26.50;43.80
15574;DHT22;7888;46.748;8.102;2022-09-09T13:08:45;26.60;43.10
15574;DHT22;7888;46.748;8.102;2022-09-09T13:11:15;26.70;43.50
15574;DHT22;7888;46.748;8.102;2022-09-09T13:13:54;26.80;43.00
15574;DHT22;7888;46.748;8.102;2022-09-09T13:16:26;26.80;43.40
15574;DHT22;7888;46.748;8.102;2022-09-09T13:18:58;26.90;43.50
15574;DHT22;7888;46.748;8.102;2022-09-09T13:21:33;27.00;43.50
15574;DHT22;7888;46.748;8.102;2022-09-09T13:24:05;27.00;42.90
15574;DHT22;7888;46.748;8.102;2022-09-09T13:26:58;26.90;43.10
15574;DHT22;7888;46.748;8.102;2022-09-09T13:29:27;26.90;42.70
15574;DHT22;7888;46.748;8.102;2022-09-09T13:31:54;26.80;42.90
15574;DHT22;7888;46.748;8.102;2022-09-09T13:34:32;26.80;43.00
15574;DHT22;7888;46.748;8.102;2022-09-09T13:37:03;26.70;43.00
15574;DHT22;7888;46.748;8.102;2022-09-09T13:39:36;26.70;42.60
15574;DHT22;7888;46.748;8.102;2022-09-09T13:42:03;26.60;42.30
15574;DHT22;7888;46.748;8.102;2022-09-09T13:44:38;26.60;42.50
15574;DHT22;7888;46.748;8.102;2022-09-09T13:47:17;26.50;41.70
15574;DHT22;7888;46.748;8.102;2022-09-09T13:49:49;26.50;41.90
15574;DHT22;7888;46.748;8.102;2022-09-09T13:52:17;26.50;42.00
15574;DHT22;7888;46.748;8.102;2022-09-09T13:54:51;26.50;42.00
15574;DHT22;7888;46.748;8.102;2022-09-09T13:57:24;26.40;41.70
15574;DHT22;7888;46.748;8.102;2022-09-09T13:59:52;26.40;41.70
15574;DHT22;7888;46.748;8.102;2022-09-09T14:02:20;26.30;42.20
15574;DHT22;7888;46.748;8.102;2022-09-09T14:04:48;26.20;42.50
15574;DHT22;7888;46.748;8.102;2022-09-09T14:07:17;26.20;42.70
15574;DHT22;7888;46.748;8.102;2022-09-09T14:09:44;26.20;42.80
15574;DHT22;7888;46.748;8.102;2022-09-09T14:12:15;26.20;42.60
15574;DHT22;7888;46.748;8.102;2022-09-09T14:14:42;26.20;43.10
15574;DHT22;7888;46.748;8.102;2022-09-09T14:17:09;26.20;42.80
15574;DHT22;7888;46.748;8.102;2022-09-09T14:19:35;26.20;42.50
15574;DHT22;7888;46.748;8.102;2022-09-09T14:22:02;26.20;42.90
15574;DHT22;7888;46.748;8.102;2022-09-09T14:24:28;26.30;42.70
15574;DHT22;7888;46.748;8.102;2022-09-09T14:26:55;26.30;42.80
15574;DHT22;7888;46.748;8.102;2022-09-09T14:29:21;26.30;42.70
15574;DHT22;7888;46.748;8.102;2022-09-09T14:31:47;26.30;43.00
15574;DHT22;7888;46.748;8.102;2022-09-09T14:34:13;26.30;43.00
15574;DHT22;7888;46.748;8.102;2022-09-09T14:36:40;26.30;42.80
15574;DHT22;7888;46.748;8.102;2022-09-09T14:39:07;26.30;42.40
15574;DHT22;7888;46.748;8.102;2022-09-09T14:41:33;26.30;42.10
15574;DHT22;7888;46.748;8.102;2022-09-09T14:43:59;26.30;42.10
15574;DHT22;7888;46.748;8.102;2022-09-09T14:46:26;26.30;42.00
15574;DHT22;7888;46.748;8.102;2022-09-09T14:48:52;26.30;41.60
15574;DHT22;7888;46.748;8.102;2022-09-09T14:51:21;26.30;41.20
15574;DHT22;7888;46.748;8.102;2022-09-09T14:53:51;26.40;40.90
15574;DHT22;7888;46.748;8.102;2022-09-09T14:56:20;26.40;40.40
15574;DHT22;7888;46.748;8.102;2022-09-09T14:58:48;26.40;40.50
15574;DHT22;7888;46.748;8.102;2022-09-09T15:01:17;26.40;39.80
15574;DHT22;7888;46.748;8.102;2022-09-09T15:03:50;26.40;39.60
15574;DHT22;7888;46.748;8.102;2022-09-09T15:06:21;26.30;39.30
15574;DHT22;7888;46.748;8.102;2022-09-09T15:08:50;26.30;39.50
15574;DHT22;7888;46.748;8.102;2022-09-09T15:11:17;26.30;39.70
15574;DHT22;7888;46.748;8.102;2022-09-09T15:13:44;26.30;39.90
15574;DHT22;7888;46.748;8.102;2022-09-09T15:16:13;26.30;40.40
15574;DHT22;7888;46.748;8.102;2022-09-09T15:18:41;26.30;40.70
15574;DHT22;7888;46.748;8.102;2022-09-09T15:21:16;26.20;41.20
15574;DHT22;7888;46.748;8.102;2022-09-09T15:23:48;26.20;40.60
15574;DHT22;7888;46.748;8.102;2022-09-09T15:26:14;26.20;39.90
15574;DHT22;7888;46.748;8.102;2022-09-09T15:28:41;26.20;39.90
15574;DHT22;7888;46.748;8.102;2022-09-09T15:31:17;26.10;39.30
15574;DHT22;7888;46.748;8.102;2022-09-09T15:36:21;26.10;38.90
15574;DHT22;7888;46.748;8.102;2022-09-09T15:38:49;26.10;38.80
15574;DHT22;7888;46.748;8.102;2022-09-09T15:41:17;26.00;38.80
15574;DHT22;7888;46.748;8.102;2022-09-09T15:43:47;26.00;38.40
15574;DHT22;7888;46.748;8.102;2022-09-09T15:48:46;26.00;38.20
15574;DHT22;7888;46.748;8.102;2022-09-09T15:51:14;26.10;39.00
15574;DHT22;7888;46.748;8.102;2022-09-09T15:53:40;26.10;39.00
15574;DHT22;7888;46.748;8.102;2022-09-09T15:56:06;26.10;39.00
15574;DHT22;7888;46.748;8.102;2022-09-09T15:58:33;26.10;38.30
15574;DHT22;7888;46.748;8.102;2022-09-09T16:01:05;26.10;38.10
15574;DHT22;7888;46.748;8.102;2022-09-09T16:03:40;26.10;37.90
15574;DHT22;7888;46.748;8.102;2022-09-09T16:06:13;26.00;37.50
15574;DHT22;7888;46.748;8.102;2022-09-09T16:08:42;26.00;38.00
15574;DHT22;7888;46.748;8.102;2022-09-09T16:11:11;26.00;37.80
15574;DHT22;7888;46.748;8.102;2022-09-09T16:13:43;26.00;37.60
15574;DHT22;7888;46.748;8.102;2022-09-09T16:16:11;26.00;37.60
15574;DHT22;7888;46.748;8.102;2022-09-09T16:18:40;25.90;37.50
15574;DHT22;7888;46.748;8.102;2022-09-09T16:21:22;25.90;37.80
15574;DHT22;7888;46.748;8.102;2022-09-09T16:23:51;25.90;37.70
15574;DHT22;7888;46.748;8.102;2022-09-09T16:26:21;25.90;38.20
15574;DHT22;7888;46.748;8.102;2022-09-09T16:28:49;25.90;38.40
15574;DHT22;7888;46.748;8.102;2022-09-09T16:31:17;25.90;37.80
15574;DHT22;7888;46.748;8.102;2022-09-09T16:33:45;25.90;37.50
15574;DHT22;7888;46.748;8.102;2022-09-09T16:36:14;25.90;38.00
15574;DHT22;7888;46.748;8.102;2022-09-09T16:38:42;25.90;37.90
15574;DHT22;7888;46.748;8.102;2022-09-09T16:41:09;26.00;37.60
15574;DHT22;7888;46.748;8.102;2022-09-09T16:43:37;26.00;37.10
15574;DHT22;7888;46.748;8.102;2022-09-09T16:46:16;26.00;36.90
15574;DHT22;7888;46.748;8.102;2022-09-09T16:48:44;26.00;38.10
15574;DHT22;7888;46.748;8.102;2022-09-09T16:53:52;25.90;38.20
15574;DHT22;7888;46.748;8.102;2022-09-09T16:56:21;25.90;38.00
15574;DHT22;7888;46.748;8.102;2022-09-09T16:58:55;25.80;38.70
15574;DHT22;7888;46.748;8.102;2022-09-09T17:01:23;25.80;38.30
15574;DHT22;7888;46.748;8.102;2022-09-09T17:03:57;25.80;39.40
15574;DHT22;7888;46.748;8.102;2022-09-09T17:06:29;25.70;40.50
15574;DHT22;7888;46.748;8.102;2022-09-09T17:08:58;25.70;40.50
15574;DHT22;7888;46.748;8.102;2022-09-09T17:11:27;25.60;40.60
15574;DHT22;7888;46.748;8.102;2022-09-09T17:13:55;25.50;40.70
15574;DHT22;7888;46.748;8.102;2022-09-09T17:16:27;25.50;40.50
15574;DHT22;7888;46.748;8.102;2022-09-09T17:18:56;25.40;40.60
15574;DHT22;7888;46.748;8.102;2022-09-09T17:21:26;25.30;41.70
15574;DHT22;7888;46.748;8.102;2022-09-09T17:23:54;25.30;41.20
15574;DHT22;7888;46.748;8.102;2022-09-09T17:26:23;25.20;41.00
15574;DHT22;7888;46.748;8.102;2022-09-09T17:28:54;25.20;41.30
15574;DHT22;7888;46.748;8.102;2022-09-09T17:31:23;25.10;41.20
15574;DHT22;7888;46.748;8.102;2022-09-09T17:33:51;25.10;41.70
15574;DHT22;7888;46.748;8.102;2022-09-09T17:36:21;25.00;42.00
15574;DHT22;7888;46.748;8.102;2022-09-09T17:38:49;24.90;42.30
15574;DHT22;7888;46.748;8.102;2022-09-09T17:41:19;24.80;42.40
15574;DHT22;7888;46.748;8.102;2022-09-09T17:43:48;24.60;42.60
15574;DHT22;7888;46.748;8.102;2022-09-09T17:46:26;24.50;42.60
15574;DHT22;7888;46.748;8.102;2022-09-09T17:48:59;24.50;42.60
15574;DHT22;7888;46.748;8.102;2022-09-09T17:51:27;24.30;42.70
15574;DHT22;7888;46.748;8.102;2022-09-09T17:54:04;24.30;42.60
15574;DHT22;7888;46.748;8.102;2022-09-09T17:56:33;24.20;42.80
15574;DHT22;7888;46.748;8.102;2022-09-09T17:59:04;24.10;42.50
15574;DHT22;7888;46.748;8.102;2022-09-09T18:01:33;24.00;42.20
15574;DHT22;7888;46.748;8.102;2022-09-09T18:04:04;23.90;42.10
15574;DHT22;7888;46.748;8.102;2022-09-09T18:06:34;23.80;41.90
15574;DHT22;7888;46.748;8.102;2022-09-09T18:09:05;23.80;42.00
15574;DHT22;7888;46.748;8.102;2022-09-09T18:11:37;23.70;41.70
15574;DHT22;7888;46.748;8.102;2022-09-09T18:14:08;23.60;41.90
15574;DHT22;7888;46.748;8.102;2022-09-09T18:16:37;23.50;41.80
15574;DHT22;7888;46.748;8.102;2022-09-09T18:19:06;23.50;41.90
15574;DHT22;7888;46.748;8.102;2022-09-09T18:21:34;23.40;42.10
15574;DHT22;7888;46.748;8.102;2022-09-09T18:24:02;23.30;42.20
15574;DHT22;7888;46.748;8.102;2022-09-09T18:26:29;23.30;42.30
15574;DHT22;7888;46.748;8.102;2022-09-09T18:28:59;23.20;42.30
15574;DHT22;7888;46.748;8.102;2022-09-09T18:31:27;23.20;42.30
15574;DHT22;7888;46.748;8.102;2022-09-09T18:33:56;23.20;42.30
15574;DHT22;7888;46.748;8.102;2022-09-09T18:36:30;23.10;42.30
15574;DHT22;7888;46.748;8.102;2022-09-09T18:39:00;23.10;42.00
15574;DHT22;7888;46.748;8.102;2022-09-09T18:41:39;23.00;42.20
15574;DHT22;7888;46.748;8.102;2022-09-09T18:44:14;23.00;42.40
15574;DHT22;7888;46.748;8.102;2022-09-09T18:46:43;22.90;42.30
15574;DHT22;7888;46.748;8.102;2022-09-09T18:49:10;22.90;42.20
15574;DHT22;7888;46.748;8.102;2022-09-09T18:51:37;22.90;42.10
15574;DHT22;7888;46.748;8.102;2022-09-09T18:54:12;22.80;42.20
15574;DHT22;7888;46.748;8.102;2022-09-09T18:56:41;22.80;42.10
15574;DHT22;7888;46.748;8.102;2022-09-09T18:59:11;22.80;42.10
15574;DHT22;7888;46.748;8.102;2022-09-09T19:01:49;22.70;42.10
15574;DHT22;7888;46.748;8.102;2022-09-09T19:04:17;22.70;42.30
15574;DHT22;7888;46.748;8.102;2022-09-09T19:06:47;22.60;42.20
15574;DHT22;7888;46.748;8.102;2022-09-09T19:09:16;22.60;42.40
15574;DHT22;7888;46.748;8.102;2022-09-09T19:11:43;22.60;42.60
15574;DHT22;7888;46.748;8.102;2022-09-09T19:14:11;22.50;42.60
15574;DHT22;7888;46.748;8.102;2022-09-09T19:16:38;22.50;42.60
15574;DHT22;7888;46.748;8.102;2022-09-09T19:19:14;22.50;42.70
15574;DHT22;7888;46.748;8.102;2022-09-09T19:21:44;22.40;42.70
15574;DHT22;7888;46.748;8.102;2022-09-09T19:24:12;22.40;42.80
15574;DHT22;7888;46.748;8.102;2022-09-09T19:26:47;22.40;42.80
15574;DHT22;7888;46.748;8.102;2022-09-09T19:29:20;22.30;43.00
15574;DHT22;7888;46.748;8.102;2022-09-09T19:31:49;22.30;42.80
15574;DHT22;7888;46.748;8.102;2022-09-09T19:34:15;22.30;43.00
15574;DHT22;7888;46.748;8.102;2022-09-09T19:36:43;22.30;43.20
15574;DHT22;7888;46.748;8.102;2022-09-09T19:39:09;22.20;43.10
15574;DHT22;7888;46.748;8.102;2022-09-09T19:41:36;22.20;43.30
15574;DHT22;7888;46.748;8.102;2022-09-09T19:44:04;22.10;43.00
15574;DHT22;7888;46.748;8.102;2022-09-09T19:46:33;22.10;43.30
15574;DHT22;7888;46.748;8.102;2022-09-09T19:49:00;22.10;43.50
15574;DHT22;7888;46.748;8.102;2022-09-09T19:51:29;22.00;43.60
15574;DHT22;7888;46.748;8.102;2022-09-09T19:54:00;22.00;43.80
15574;DHT22;7888;46.748;8.102;2022-09-09T19:56:29;22.00;43.80
15574;DHT22;7888;46.748;8.102;2022-09-09T19:58:56;21.90;43.80
15574;DHT22;7888;46.748;8.102;2022-09-09T20:01:33;21.90;44.00
15574;DHT22;7888;46.748;8.102;2022-09-09T20:04:02;21.80;44.90
15574;DHT22;7888;46.748;8.102;2022-09-09T20:06:32;21.80;44.30
15574;DHT22;7888;46.748;8.102;2022-09-09T20:09:00;21.70;44.40
15574;DHT22;7888;46.748;8.102;2022-09-09T20:11:27;21.70;44.50
15574;DHT22;7888;46.748;8.102;2022-09-09T20:13:53;21.60;44.80
15574;DHT22;7888;46.748;8.102;2022-09-09T20:16:27;21.60;44.80
15574;DHT22;7888;46.748;8.102;2022-09-09T20:18:58;21.50;44.90
15574;DHT22;7888;46.748;8.102;2022-09-09T20:23:59;21.50;45.30
15574;DHT22;7888;46.748;8.102;2022-09-09T20:26:27;21.40;45.40
15574;DHT22;7888;46.748;8.102;2022-09-09T20:28:55;21.40;45.20
15574;DHT22;7888;46.748;8.102;2022-09-09T20:31:26;21.40;45.50
15574;DHT22;7888;46.748;8.102;2022-09-09T20:33:54;21.40;45.90
15574;DHT22;7888;46.748;8.102;2022-09-09T20:36:24;21.30;46.20
15574;DHT22;7888;46.748;8.102;2022-09-09T20:38:53;21.30;45.70
15574;DHT22;7888;46.748;8.102;2022-09-09T20:41:23;21.30;45.80
15574;DHT22;7888;46.748;8.102;2022-09-09T20:43:54;21.30;45.80
15574;DHT22;7888;46.748;8.102;2022-09-09T20:46:35;21.20;46.00
15574;DHT22;7888;46.748;8.102;2022-09-09T20:49:03;21.20;46.40
15574;DHT22;7888;46.748;8.102;2022-09-09T20:51:32;21.20;46.30
15574;DHT22;7888;46.748;8.102;2022-09-09T20:54:01;21.20;46.30
15574;DHT22;7888;46.748;8.102;2022-09-09T20:56:40;21.20;46.30
15574;DHT22;7888;46.748;8.102;2022-09-09T20:59:13;21.20;46.50
15574;DHT22;7888;46.748;8.102;2022-09-09T21:01:40;21.10;46.40
15574;DHT22;7888;46.748;8.102;2022-09-09T21:04:07;21.10;46.20
15574;DHT22;7888;46.748;8.102;2022-09-09T21:06:34;21.10;46.40
15574;DHT22;7888;46.748;8.102;2022-09-09T21:09:00;21.10;46.50
15574;DHT22;7888;46.748;8.102;2022-09-09T21:11:26;21.10;46.60
15574;DHT22;7888;46.748;8.102;2022-09-09T21:13:52;21.00;46.40
15574;DHT22;7888;46.748;8.102;2022-09-09T21:16:18;21.00;46.40
15574;DHT22;7888;46.748;8.102;2022-09-09T21:18:46;21.00;46.40
15574;DHT22;7888;46.748;8.102;2022-09-09T21:21:13;21.00;46.30
15574;DHT22;7888;46.748;8.102;2022-09-09T21:23:40;21.00;46.20
15574;DHT22;7888;46.748;8.102;2022-09-09T21:26:07;21.00;46.10
15574;DHT22;7888;46.748;8.102;2022-09-09T21:28:34;21.00;46.10
15574;DHT22;7888;46.748;8.102;2022-09-09T21:31:01;21.00;46.10
15574;DHT22;7888;46.748;8.102;2022-09-09T21:33:28;20.90;46.10
15574;DHT22;7888;46.748;8.102;2022-09-09T21:36:00;20.90;46.10
15574;DHT22;7888;46.748;8.102;2022-09-09T21:38:27;20.90;46.10
15574;DHT22;7888;46.748;8.102;2022-09-09T21:40:53;20.90;45.90
15574;DHT22;7888;46.748;8.102;2022-09-09T21:43:19;20.90;46.50
15574;DHT22;7888;46.748;8.102;2022-09-09T21:45:46;20.90;46.00
15574;DHT22;7888;46.748;8.102;2022-09-09T21:48:14;20.80;46.00
15574;DHT22;7888;46.748;8.102;2022-09-09T21:50:45;20.80;46.10
15574;DHT22;7888;46.748;8.102;2022-09-09T21:53:14;20.70;46.00
15574;DHT22;7888;46.748;8.102;2022-09-09T21:55:43;20.80;45.80
15574;DHT22;7888;46.748;8.102;2022-09-09T21:58:12;20.70;45.50
15574;DHT22;7888;46.748;8.102;2022-09-09T22:00:44;20.70;45.40
15574;DHT22;7888;46.748;8.102;2022-09-09T22:03:15;20.70;45.30
15574;DHT22;7888;46.748;8.102;2022-09-09T22:05:43;20.70;45.20
15574;DHT22;7888;46.748;8.102;2022-09-09T22:08:12;20.70;45.10
15574;DHT22;7888;46.748;8.102;2022-09-09T22:10:41;20.70;45.00
15574;DHT22;7888;46.748;8.102;2022-09-09T22:13:14;20.70;45.00
15574;DHT22;7888;46.748;8.102;2022-09-09T22:15:43;20.70;44.90
15574;DHT22;7888;46.748;8.102;2022-09-09T22:18:11;20.70;45.20
15574;DHT22;7888;46.748;8.102;2022-09-09T22:20:42;20.60;45.40
15574;DHT22;7888;46.748;8.102;2022-09-09T22:23:10;20.70;45.40
15574;DHT22;7888;46.748;8.102;2022-09-09T22:25:37;20.60;45.20
15574;DHT22;7888;46.748;8.102;2022-09-09T22:28:06;20.70;45.30
15574;DHT22;7888;46.748;8.102;2022-09-09T22:30:33;20.70;45.20
15574;DHT22;7888;46.748;8.102;2022-09-09T22:33:00;20.60;45.20
15574;DHT22;7888;46.748;8.102;2022-09-09T22:35:27;20.60;45.30
15574;DHT22;7888;46.748;8.102;2022-09-09T22:37:53;20.60;45.30
15574;DHT22;7888;46.748;8.102;2022-09-09T22:40:20;20.60;45.30
15574;DHT22;7888;46.748;8.102;2022-09-09T22:42:46;20.60;45.30
15574;DHT22;7888;46.748;8.102;2022-09-09T22:45:12;20.60;45.30
15574;DHT22;7888;46.748;8.102;2022-09-09T22:47:38;20.60;45.40
15574;DHT22;7888;46.748;8.102;2022-09-09T22:50:08;20.60;45.30
15574;DHT22;7888;46.748;8.102;2022-09-09T22:52:34;20.50;45.20
15574;DHT22;7888;46.748;8.102;2022-09-09T22:55:00;20.50;45.10
15574;DHT22;7888;46.748;8.102;2022-09-09T22:57:26;20.50;45.10
15574;DHT22;7888;46.748;8.102;2022-09-09T22:59:52;20.50;45.20
15574;DHT22;7888;46.748;8.102;2022-09-09T23:02:18;20.40;45.20
15574;DHT22;7888;46.748;8.102;2022-09-09T23:04:45;20.40;45.40
15574;DHT22;7888;46.748;8.102;2022-09-09T23:07:12;20.40;45.50
15574;DHT22;7888;46.748;8.102;2022-09-09T23:09:38;20.40;45.70
15574;DHT22;7888;46.748;8.102;2022-09-09T23:12:04;20.30;45.90
15574;DHT22;7888;46.748;8.102;2022-09-09T23:14:33;20.30;46.00
15574;DHT22;7888;46.748;8.102;2022-09-09T23:16:59;20.30;46.20
15574;DHT22;7888;46.748;8.102;2022-09-09T23:19:27;20.20;46.70
15574;DHT22;7888;46.748;8.102;2022-09-09T23:21:53;20.20;46.80
15574;DHT22;7888;46.748;8.102;2022-09-09T23:24:19;20.20;47.10
15574;DHT22;7888;46.748;8.102;2022-09-09T23:26:45;20.20;47.30